METAR AND TAF INFORMATION
METAR FOR LEAL
ADDS - METARS form results

(1713 UTC 22 October 2017)
Data provider http://aviationweather.gov/adds/metars/
 
METAR text: LEAL 221700Z 07010KT CAVOK 21/15 Q1023 NOSIG
Conditions at: LEAL (ALICANTE/EL ALTE, ES) observed 1700 UTC 22 October 2017
Temperature: 21.0°C (70°F)
Dewpoint: 15.0°C (59°F) [RH = 69%]
Pressure (altimeter): 30.21 inches Hg (1023.0 mb)
Winds: from the ENE (70 degrees) at 12 MPH (10 knots; 5.2 m/s)
Visibility: 6 or more miles (10+ km)
Ceiling: ceiling and visibility are OK
Clouds: unknown
Weather: no significant weather observed at this time

METAR text: LEAL 221630Z 08010KT CAVOK 21/15 Q1023 NOSIG
Conditions at: LEAL (ALICANTE/EL ALTE, ES) observed 1630 UTC 22 October 2017
Temperature: 21.0°C (70°F)
Dewpoint: 15.0°C (59°F) [RH = 69%]
Pressure (altimeter): 30.21 inches Hg (1023.0 mb)
Winds: from the E (80 degrees) at 12 MPH (10 knots; 5.2 m/s)
Visibility: 6 or more miles (10+ km)
Ceiling: ceiling and visibility are OK
Clouds: unknown
Weather: no significant weather observed at this time

Forecast for: LEAL (ALICANTE/EL ALTE, ES)
Text: TAF LEAL 221100Z 2212/2312 08012KT 9999 FEW030 TX24/2212Z TN14/2306Z
Forecast period: 1200 to 1800 UTC 22 October 2017
Forecast type: FROM: standard forecast or significant change
Winds: from the E (80 degrees) at 14 MPH (12 knots; 6.2 m/s)
Visibility: 6 or more miles (10+ km)
Clouds: few clouds at 3000 feet AGL
Weather: no significant weather forecast for this period
Text: BECMG 2218/2220 33005KT
Forecast period: 1800 UTC 22 October 2017 to 1200 UTC 23 October 2017
Forecast type: BECOMING: Conditions expected to become as follows by 2000 UTC 22 October 2017
Winds: from the NNW (330 degrees) at 6 MPH (5 knots; 2.6 m/s)
Visibility: 6 or more miles (10+ km)
Clouds: few clouds at 3000 feet AGL
Weather: no significant weather forecast for this period

 AIRPORT MAP

 RUNWAY INFORMATION
Runway 10 Runway length 9842 ft Runway width 148 ft
Runway elevation 142 ft Runway displaced threshold 0 ft Runway heading 100
Runway 28 Runway length 9842 ft Runway width 148 ft
Runway elevation 44 ft Runway displaced threshold 0 ft Runway heading 280

 AIRPORT FREQUENCIES
Type APP Name APP Frequency 118.8 MHZ
Type ATIS Name ATIS Frequency 113.8 MHZ
Type GND Name GND Frequency 121.7 MHZ
Type TWR Name TWR Frequency 118.15 MHZ

 AIRPORT NEAR NAVIGATION AIDS
Type VOR-DME Name Alicante Frequency 113800 KHZ
Type VOR-DME Name Alicante Frequency 114650 KHZ







Air Nostrum Virtual © 2017

a VAG member

Policy Privacy | Rules | Powered by VAM [V2.6.2] | Customized by Jz © 2017 for Air Nostrum Virtual